Laramie Regional Airport
KLAR : now visible

Airfield :











YOU CAN JOIN US ON...

 
LOGIN :

Register | Disclaimer

   EN    FR    IT 

 









Legend :    VFR   Marginal VFR   IFR   Intensive IFR   Very Intensive IFR
Visi :
Ceiling :
>= 8 km
>= 3000ft
5 to 8 km
1000 to 3000 ft
1500m to 5 km
500 to 1000 ft
800 to 1500m
200 to 500 ft
< 800m
< 200 ft
Symbols :   Thunderstorms  Fog  Heavy snow  Heavy precipitations  Wind > 20 kt






- Airport Elevation : 7284 ft
- IATA code : LAR


KLAR - Laramie Regional

CURRENT METAR :
  • 151453Z AUTO 23003KT 10SM CLR M21/M23 A2977 RMK AO2 SLP163 T12061228 53004

EXPIRED METARs :
  • 151353Z AUTO 16008KT 10SM CLR M19/M22 A2975 RMK AO2 SLP154 T11941222
  • 151253Z AUTO 30006KT 10SM CLR M17/M20 A2975 RMK AO2 SLP135 T11671200
  • 151153Z AUTO 25008KT 10SM SCT049 M17/M20 A2975 RMK AO2 SLP136 60000 70004 I6000 T11671200 11083 21167 51006

TAF KLAR
Valid from the 15 at 12:00 until the 16 at 12:00 UTC


151120Z 1512/1612 34010KT P6SM VCSH BKN040
FM151600 32008KT P6SM SCT050



MET'MAP, your aeronautical weather chart ! - Copyright ORBIFLY December 2007 - Disclaimer

ORBIFLY MET'MAP TEAM :

Programming & Development : Alexandra Zaïnal
Concept & original design : Baudouin d'Aumeries
Assistance for programming : Marc-Olivier Méhu
Technical & hardware support : Manuel Goepfert

Contact : metmap@orbifly.com




SOURCES & CREDITS :

   NOAA       Earth
Advisory